ENHK

Hasvik Airport

Hasvik, Norway
METAR ENHK 221350Z 01005KT 320V020 9999 FEW025 SCT051 03/M05 Q1014
Observed Flight Rules
Apr-22 @ 13:50 UTC (4 hours ago) Visual Flight Rules
Wind Visibility Clouds
10° at 5 knots 10,000+ meters
  • Few at 2,500' AGL
  • Scattered at 5,100' AGL
Temperatures Readings
Current 3°C / 37°F
Dewpoint -5°C / 23°F
Humidity 56%
Altimeter 29.94" Hg
Pressure 1014 hPa
Elevation 10
METAR ENHK 221350Z 01005KT 320V020 9999 FEW025 SCT051 03/M05 Q1014
Observed Flight Rules
Apr-22 @ 13:50 UTC
(4 hours ago)
VFR
Wind Visibility
10° at 5 knots 10,000+ meters
Clouds
  • Few at 2,500' AGL
  • Scattered at 5,100' AGL
Temperature Dewpoint
3°C / 37°F -5°C / 23°F
Humidity Altimeter Pressure
56% 29.94" Hg 1014 hPa